createdAt,value
2017-11-17T00:00:03.384Z,21.20
2017-11-17T00:00:35.149Z,21.22
2017-11-17T00:01:06.804Z,21.25
2017-11-17T00:01:38.442Z,21.25
2017-11-17T00:02:10.107Z,21.24
2017-11-17T00:02:41.731Z,21.24
2017-11-17T00:03:13.376Z,21.23
2017-11-17T00:03:45.008Z,21.25
2017-11-17T00:04:16.635Z,21.25
2017-11-17T00:04:48.283Z,21.22
2017-11-17T00:05:19.926Z,21.22
2017-11-17T00:05:51.874Z,21.24
2017-11-17T00:06:23.525Z,21.24
2017-11-17T00:06:55.389Z,21.26
2017-11-17T00:07:27.112Z,21.24
2017-11-17T00:07:58.739Z,21.24
2017-11-17T00:08:30.388Z,21.25
2017-11-17T00:09:02.030Z,21.25
2017-11-17T00:09:34.031Z,21.23
2017-11-17T00:10:05.659Z,21.24
2017-11-17T00:10:37.283Z,21.24
2017-11-17T00:11:08.907Z,21.24
2017-11-17T00:11:40.531Z,21.23
2017-11-17T00:12:12.192Z,21.26
2017-11-17T00:12:43.860Z,21.26
2017-11-17T00:13:15.487Z,21.26
2017-11-17T00:13:47.121Z,21.25
2017-11-17T00:14:18.756Z,21.28
2017-11-17T00:14:50.397Z,21.28
2017-11-17T00:15:22.042Z,21.27
2017-11-17T00:15:53.683Z,21.27
2017-11-17T00:16:25.326Z,21.27
2017-11-17T00:16:57.024Z,21.26
2017-11-17T00:17:28.651Z,21.25
2017-11-17T00:18:00.314Z,21.26
2017-11-17T00:18:31.948Z,21.27
2017-11-17T00:19:03.584Z,21.26
2017-11-17T00:19:35.215Z,21.28
2017-11-17T00:20:06.847Z,21.26
2017-11-17T00:20:38.479Z,21.25
2017-11-17T00:21:10.111Z,21.27
2017-11-17T00:21:41.751Z,21.29
2017-11-17T00:22:13.619Z,21.28
2017-11-17T00:22:45.244Z,21.26
2017-11-17T00:23:16.979Z,21.24
2017-11-17T00:23:48.621Z,21.24
2017-11-17T00:24:20.259Z,21.24
2017-11-17T00:24:51.904Z,21.22
2017-11-17T00:25:23.542Z,21.20
2017-11-17T00:25:55.186Z,21.25
2017-11-17T00:26:26.831Z,21.22
2017-11-17T00:26:58.468Z,21.23
2017-11-17T00:27:30.111Z,21.25
2017-11-17T00:28:01.755Z,21.24
2017-11-17T00:28:33.420Z,21.27
2017-11-17T00:29:05.047Z,21.23
2017-11-17T00:29:36.681Z,21.23
2017-11-17T00:30:08.324Z,21.24
2017-11-17T00:30:39.965Z,21.23
2017-11-17T00:31:11.607Z,21.23
2017-11-17T00:31:43.249Z,21.25
2017-11-17T00:32:14.915Z,21.27
2017-11-17T00:32:46.539Z,21.23
2017-11-17T00:33:18.176Z,21.24
2017-11-17T00:33:49.851Z,21.24
2017-11-17T00:34:21.476Z,21.22
2017-11-17T00:34:53.407Z,21.22
2017-11-17T00:35:25.051Z,21.26
2017-11-17T00:35:56.689Z,21.27
2017-11-17T00:36:28.330Z,21.29
2017-11-17T00:36:59.975Z,21.27
2017-11-17T00:37:31.617Z,21.27
2017-11-17T00:38:03.258Z,21.26
2017-11-17T00:38:34.901Z,21.26
2017-11-17T00:39:06.598Z,21.26
2017-11-17T00:39:38.468Z,21.26
2017-11-17T00:40:10.096Z,21.26
2017-11-17T00:40:41.723Z,21.25
2017-11-17T00:41:13.359Z,21.24
2017-11-17T00:41:44.984Z,21.21
2017-11-17T00:42:16.608Z,21.22
2017-11-17T00:42:48.343Z,21.22
2017-11-17T00:43:19.981Z,21.24
2017-11-17T00:43:51.628Z,21.24
2017-11-17T00:44:23.295Z,21.24
2017-11-17T00:44:54.925Z,21.22
2017-11-17T00:45:26.555Z,21.24
2017-11-17T00:45:58.193Z,21.25
2017-11-17T00:46:29.837Z,21.25
2017-11-17T00:47:01.478Z,21.24
2017-11-17T00:47:33.120Z,21.24
2017-11-17T00:48:05.069Z,21.22
2017-11-17T00:48:36.709Z,21.24
2017-11-17T00:49:08.352Z,21.27
2017-11-17T00:49:40.020Z,21.28
2017-11-17T00:50:11.642Z,21.26
2017-11-17T00:50:43.280Z,21.26
2017-11-17T00:51:14.921Z,21.27
2017-11-17T00:51:46.559Z,21.27
2017-11-17T00:52:18.202Z,21.23
2017-11-17T00:52:49.844Z,21.24
2017-11-17T00:53:21.487Z,21.24
2017-11-17T00:53:53.129Z,21.24
2017-11-17T00:54:24.770Z,21.26
2017-11-17T00:54:56.440Z,21.25
2017-11-17T00:55:28.063Z,21.28
2017-11-17T00:55:59.698Z,21.26
2017-11-17T00:56:31.337Z,21.24
2017-11-17T00:57:02.983Z,21.21
2017-11-17T00:57:34.621Z,21.22
2017-11-17T00:58:06.265Z,21.22
2017-11-17T00:58:37.904Z,21.23
2017-11-17T00:59:09.549Z,21.21
2017-11-17T00:59:41.188Z,21.22
2017-11-17T01:00:12.833Z,21.21
2017-11-17T01:00:44.472Z,21.21
2017-11-17T01:01:16.116Z,21.24
2017-11-17T01:01:47.758Z,21.22
2017-11-17T01:02:19.400Z,21.22
2017-11-17T01:02:51.044Z,21.22
2017-11-17T01:03:22.685Z,21.22
2017-11-17T01:03:54.572Z,21.22
2017-11-17T01:04:26.200Z,21.22
2017-11-17T01:04:57.824Z,21.22
2017-11-17T01:05:29.492Z,21.20
2017-11-17T01:06:01.116Z,21.19
2017-11-17T01:06:32.747Z,21.19
2017-11-17T01:07:04.485Z,21.19
2017-11-17T01:07:36.127Z,21.20
2017-11-17T01:08:07.884Z,21.20
2017-11-17T01:08:39.512Z,21.23
2017-11-17T01:09:11.167Z,21.22
2017-11-17T01:09:43.002Z,21.21
2017-11-17T01:10:14.654Z,21.22
2017-11-17T01:10:46.327Z,21.22
2017-11-17T01:11:17.952Z,21.23
2017-11-17T01:11:49.579Z,21.24
2017-11-17T01:12:21.213Z,21.25
2017-11-17T01:12:52.853Z,21.25
2017-11-17T01:13:24.492Z,21.24
2017-11-17T01:13:56.140Z,21.25
2017-11-17T01:14:27.776Z,21.24
2017-11-17T01:14:59.420Z,21.24
2017-11-17T01:15:31.062Z,21.24
2017-11-17T01:16:02.731Z,21.25
2017-11-17T01:16:34.359Z,21.25
2017-11-17T01:17:06.233Z,21.25
2017-11-17T01:17:37.859Z,21.27
2017-11-17T01:18:09.494Z,21.25
2017-11-17T01:18:41.123Z,21.22
2017-11-17T01:19:12.864Z,21.21
2017-11-17T01:19:44.504Z,21.19
2017-11-17T01:20:16.144Z,21.18
2017-11-17T01:20:47.776Z,21.20
2017-11-17T01:21:19.449Z,21.21
2017-11-17T01:21:51.084Z,21.19
2017-11-17T01:22:24.883Z,21.18
2017-11-17T01:22:56.563Z,21.19
2017-11-17T01:23:28.199Z,21.20
2017-11-17T01:23:59.838Z,21.19
2017-11-17T01:24:31.476Z,21.19
2017-11-17T01:25:03.103Z,21.20
2017-11-17T01:25:34.727Z,21.19
2017-11-17T01:26:06.666Z,21.18
2017-11-17T01:26:38.331Z,21.19
2017-11-17T01:27:09.979Z,21.19
2017-11-17T01:27:41.608Z,21.18
2017-11-17T01:28:13.240Z,21.20
2017-11-17T01:28:45.074Z,21.18
2017-11-17T01:29:16.827Z,21.18
2017-11-17T01:29:48.457Z,21.18
2017-11-17T01:30:20.105Z,21.17
2017-11-17T01:30:51.747Z,21.19
2017-11-17T01:31:23.388Z,21.21
2017-11-17T01:31:55.055Z,21.20
2017-11-17T01:32:26.679Z,21.18
2017-11-17T01:32:58.626Z,21.16
2017-11-17T01:33:30.263Z,21.17
2017-11-17T01:34:01.905Z,21.18
2017-11-17T01:34:33.548Z,21.16
2017-11-17T01:35:05.190Z,21.19
2017-11-17T01:35:36.830Z,21.19
2017-11-17T01:36:08.476Z,21.19
2017-11-17T01:36:40.121Z,21.19
2017-11-17T01:37:11.758Z,21.17
2017-11-17T01:37:43.405Z,21.17
2017-11-17T01:38:15.271Z,21.16
2017-11-17T01:38:46.894Z,21.17
2017-11-17T01:39:18.635Z,21.14
2017-11-17T01:39:50.276Z,21.17
2017-11-17T01:40:21.916Z,21.16
2017-11-17T01:40:53.557Z,21.18
2017-11-17T01:41:25.202Z,21.16
2017-11-17T01:41:56.841Z,21.18
2017-11-17T01:42:28.507Z,21.21
2017-11-17T01:43:00.136Z,21.24
2017-11-17T01:43:31.771Z,21.24
2017-11-17T01:44:03.409Z,21.22
2017-11-17T01:44:35.055Z,21.23
2017-11-17T01:45:06.695Z,21.24
2017-11-17T01:45:38.337Z,21.22
2017-11-17T01:46:09.979Z,21.22
2017-11-17T01:46:41.622Z,21.21
2017-11-17T01:47:13.263Z,21.20
2017-11-17T01:47:44.927Z,21.21
2017-11-17T01:48:16.555Z,21.23
2017-11-17T01:48:48.191Z,21.25
2017-11-17T01:49:19.827Z,21.26
2017-11-17T01:49:51.473Z,21.25
2017-11-17T01:50:23.111Z,21.29
2017-11-17T01:50:54.756Z,21.30
2017-11-17T01:51:26.435Z,21.32
2017-11-17T01:51:58.059Z,21.31
2017-11-17T01:52:29.688Z,21.32
2017-11-17T01:53:01.355Z,21.32
2017-11-17T01:53:32.979Z,21.33
2017-11-17T01:54:04.915Z,21.33
2017-11-17T01:54:36.556Z,21.32
2017-11-17T01:55:08.506Z,21.31
2017-11-17T01:55:40.152Z,21.31
2017-11-17T01:56:11.784Z,21.32
2017-11-17T01:56:43.438Z,21.31
2017-11-17T01:57:15.075Z,21.29
2017-11-17T01:57:46.728Z,21.29
2017-11-17T01:58:18.395Z,21.31
2017-11-17T01:58:50.023Z,21.32
2017-11-17T01:59:21.651Z,21.32
2017-11-17T01:59:53.483Z,21.32
2017-11-17T02:00:25.232Z,21.31
2017-11-17T02:00:57.181Z,21.31
2017-11-17T02:01:29.131Z,21.30
2017-11-17T02:02:00.901Z,21.28
2017-11-17T02:02:32.527Z,21.29
2017-11-17T02:03:04.363Z,21.32
2017-11-17T02:03:36.036Z,21.30
2017-11-17T02:04:07.659Z,21.31
2017-11-17T02:04:39.300Z,21.30
2017-11-17T02:05:11.167Z,21.28
2017-11-17T02:05:42.795Z,21.29
2017-11-17T02:06:14.551Z,21.30
2017-11-17T02:06:46.183Z,21.32
2017-11-17T02:07:17.812Z,21.30
2017-11-17T02:07:49.439Z,21.29
2017-11-17T02:08:21.087Z,21.30
2017-11-17T02:08:52.759Z,21.28
2017-11-17T02:09:24.388Z,21.30
2017-11-17T02:09:56.323Z,21.29
2017-11-17T02:10:27.962Z,21.29
2017-11-17T02:10:59.606Z,21.32
2017-11-17T02:11:31.245Z,21.31
2017-11-17T02:12:02.892Z,21.30
2017-11-17T02:12:34.535Z,21.31
2017-11-17T02:13:06.171Z,21.33
2017-11-17T02:13:37.814Z,21.34
2017-11-17T02:14:09.455Z,21.33
2017-11-17T02:14:41.097Z,21.33
2017-11-17T02:15:15.520Z,21.35
2017-11-17T02:15:49.442Z,21.35
2017-11-17T02:16:24.372Z,21.34
2017-11-17T02:16:59.718Z,21.36
2017-11-17T02:17:31.870Z,21.35
2017-11-17T02:18:03.496Z,21.37
2017-11-17T02:18:35.132Z,21.36
2017-11-17T02:19:06.756Z,21.35
2017-11-17T02:19:38.472Z,21.34
2017-11-17T02:20:10.115Z,21.34
2017-11-17T02:20:41.754Z,21.35
2017-11-17T02:21:13.705Z,21.35
2017-11-17T02:21:45.344Z,21.34
2017-11-17T02:22:16.986Z,21.32
2017-11-17T02:22:48.630Z,21.34
2017-11-17T02:23:20.272Z,21.34
2017-11-17T02:23:51.911Z,21.34
2017-11-17T02:24:23.581Z,21.32
2017-11-17T02:24:55.208Z,21.32
2017-11-17T02:25:26.840Z,21.33
2017-11-17T02:25:58.479Z,21.31
2017-11-17T02:26:30.129Z,21.31
2017-11-17T02:27:01.770Z,21.33
2017-11-17T02:27:33.408Z,21.32
2017-11-17T02:28:05.050Z,21.30
2017-11-17T02:28:36.693Z,21.32
2017-11-17T02:29:08.331Z,21.31
2017-11-17T02:29:39.994Z,21.33
2017-11-17T02:30:11.626Z,21.32
2017-11-17T02:30:43.260Z,21.31
2017-11-17T02:31:14.898Z,21.32
2017-11-17T02:31:46.854Z,21.34
2017-11-17T02:32:18.505Z,21.30
2017-11-17T02:32:50.137Z,21.27
2017-11-17T02:33:22.083Z,21.28
2017-11-17T02:33:53.722Z,21.27
2017-11-17T02:34:25.366Z,21.28
2017-11-17T02:34:57.035Z,21.25
2017-11-17T02:35:28.664Z,21.29
2017-11-17T02:36:00.401Z,21.26
2017-11-17T02:36:32.243Z,21.29
2017-11-17T02:37:03.881Z,21.30
2017-11-17T02:37:35.522Z,21.32
2017-11-17T02:38:07.167Z,21.32
2017-11-17T02:38:38.807Z,21.32
2017-11-17T02:39:10.448Z,21.33
2017-11-17T02:39:42.085Z,21.32
2017-11-17T02:40:13.780Z,21.31
2017-11-17T02:40:45.420Z,21.31
2017-11-17T02:41:17.052Z,21.27
2017-11-17T02:41:48.688Z,21.28
2017-11-17T02:42:20.329Z,21.28
2017-11-17T02:42:51.960Z,21.26
2017-11-17T02:43:23.592Z,21.31
2017-11-17T02:43:55.228Z,21.32
2017-11-17T02:44:26.869Z,21.31
2017-11-17T02:44:58.514Z,21.30
2017-11-17T02:45:30.464Z,21.28
2017-11-17T02:46:02.100Z,21.28
2017-11-17T02:46:33.742Z,21.29
2017-11-17T02:47:05.384Z,21.27
2017-11-17T02:47:37.026Z,21.26
2017-11-17T02:48:08.668Z,21.26
2017-11-17T02:48:40.313Z,21.28
2017-11-17T02:49:11.957Z,21.29
2017-11-17T02:49:43.599Z,21.29
2017-11-17T02:50:15.245Z,21.30
2017-11-17T02:50:46.917Z,21.28
2017-11-17T02:51:18.557Z,21.27
2017-11-17T02:51:50.187Z,21.26
2017-11-17T02:52:21.813Z,21.25
2017-11-17T02:52:53.449Z,21.25
2017-11-17T02:53:25.091Z,21.24
2017-11-17T02:53:56.746Z,21.25
2017-11-17T02:54:28.379Z,21.25
2017-11-17T02:55:00.245Z,21.25
2017-11-17T02:55:31.871Z,21.25
2017-11-17T02:56:03.607Z,21.25
2017-11-17T02:56:35.249Z,21.28
2017-11-17T02:57:06.887Z,21.26
2017-11-17T02:57:38.514Z,21.25
2017-11-17T02:58:10.175Z,21.24
2017-11-17T02:58:41.814Z,21.25
2017-11-17T02:59:13.461Z,21.26
2017-11-17T02:59:45.097Z,21.24
2017-11-17T03:00:16.760Z,21.29
2017-11-17T03:00:48.395Z,21.25
2017-11-17T03:01:20.068Z,21.25
2017-11-17T03:01:51.691Z,21.25
2017-11-17T03:02:23.315Z,21.24
2017-11-17T03:02:55.259Z,21.23
2017-11-17T03:03:26.900Z,21.23
2017-11-17T03:03:58.540Z,21.24
2017-11-17T03:04:30.180Z,21.24
2017-11-17T03:05:01.852Z,21.25
2017-11-17T03:05:33.704Z,21.24
2017-11-17T03:06:05.332Z,21.26
2017-11-17T03:06:37.003Z,21.22
2017-11-17T03:07:08.635Z,21.20
2017-11-17T03:07:40.263Z,21.21
2017-11-17T03:08:11.887Z,21.19
2017-11-17T03:08:43.627Z,21.19
2017-11-17T03:09:15.270Z,21.20
2017-11-17T03:09:46.898Z,21.21
2017-11-17T03:10:18.550Z,21.22
2017-11-17T03:10:50.198Z,21.22
2017-11-17T03:11:21.835Z,21.22
2017-11-17T03:11:53.512Z,21.22
2017-11-17T03:12:25.135Z,21.22
2017-11-17T03:12:56.768Z,21.27
2017-11-17T03:13:28.405Z,21.26
2017-11-17T03:14:00.046Z,21.26
2017-11-17T03:14:31.686Z,21.25
2017-11-17T03:15:03.327Z,21.24
2017-11-17T03:15:34.967Z,21.23
2017-11-17T03:16:06.615Z,21.24
2017-11-17T03:16:38.252Z,21.24
2017-11-17T03:17:09.923Z,21.20
2017-11-17T03:17:41.548Z,21.22
2017-11-17T03:18:13.451Z,21.23
2017-11-17T03:18:45.080Z,21.22
2017-11-17T03:19:16.707Z,21.22
2017-11-17T03:19:48.330Z,21.22
2017-11-17T03:20:19.956Z,21.22
2017-11-17T03:20:51.697Z,21.22
2017-11-17T03:21:23.336Z,21.23
2017-11-17T03:21:54.988Z,21.24
2017-11-17T03:22:26.663Z,21.27
2017-11-17T03:22:58.691Z,21.28
2017-11-17T03:23:30.521Z,21.27
2017-11-17T03:24:02.160Z,21.29
2017-11-17T03:24:33.807Z,21.27
2017-11-17T03:25:05.445Z,21.23
2017-11-17T03:25:37.087Z,21.25
2017-11-17T03:26:08.728Z,21.25
2017-11-17T03:26:40.383Z,21.22
2017-11-17T03:27:12.015Z,21.24
2017-11-17T03:27:43.687Z,21.26
2017-11-17T03:28:15.327Z,21.26
2017-11-17T03:28:46.954Z,21.27
2017-11-17T03:29:18.818Z,21.27
2017-11-17T03:29:50.448Z,21.31
2017-11-17T03:30:22.076Z,21.28
2017-11-17T03:30:53.817Z,21.28
2017-11-17T03:31:25.457Z,21.31
2017-11-17T03:31:57.094Z,21.30
2017-11-17T03:32:28.737Z,21.30
2017-11-17T03:33:00.382Z,21.29
2017-11-17T03:33:32.022Z,21.32
2017-11-17T03:34:03.664Z,21.31
2017-11-17T03:34:35.305Z,21.30
2017-11-17T03:35:06.949Z,21.28
2017-11-17T03:35:38.591Z,21.30
2017-11-17T03:36:10.231Z,21.31
2017-11-17T03:36:41.879Z,21.35
2017-11-17T03:37:13.518Z,21.33
2017-11-17T03:37:45.157Z,21.33
2017-11-17T03:38:16.828Z,21.30
2017-11-17T03:38:48.456Z,21.31
2017-11-17T03:39:20.700Z,21.30
2017-11-17T03:39:52.581Z,21.31
2017-11-17T03:40:24.203Z,21.29
2017-11-17T03:40:55.933Z,21.29
2017-11-17T03:41:27.572Z,21.29
2017-11-17T03:41:59.216Z,21.29
2017-11-17T03:42:30.859Z,21.31
2017-11-17T03:43:02.496Z,21.33
2017-11-17T03:43:34.171Z,21.32
2017-11-17T03:44:05.795Z,21.32
2017-11-17T03:44:37.625Z,21.32
2017-11-17T03:45:09.376Z,21.32
2017-11-17T03:45:41.023Z,21.34
2017-11-17T03:46:12.664Z,21.30
2017-11-17T03:46:44.300Z,21.34
2017-11-17T03:47:15.940Z,21.37
2017-11-17T03:47:47.581Z,21.37
2017-11-17T03:48:19.218Z,21.35
2017-11-17T03:48:50.888Z,21.35
2017-11-17T03:49:22.516Z,21.34
2017-11-17T03:49:54.149Z,21.34
2017-11-17T03:50:25.795Z,21.37
2017-11-17T03:50:57.433Z,21.37
2017-11-17T03:51:29.076Z,21.37
2017-11-17T03:52:00.725Z,21.36
2017-11-17T03:52:32.668Z,21.36
2017-11-17T03:53:04.309Z,21.36
2017-11-17T03:53:35.952Z,21.35
2017-11-17T03:54:07.619Z,21.34
2017-11-17T03:54:39.247Z,21.28
2017-11-17T03:55:10.879Z,21.32
2017-11-17T03:55:42.521Z,21.31
2017-11-17T03:56:14.160Z,21.31
2017-11-17T03:56:45.802Z,21.33
2017-11-17T03:57:17.447Z,21.32
2017-11-17T03:57:49.085Z,21.33
2017-11-17T03:58:20.730Z,21.30
2017-11-17T03:58:52.371Z,21.29
2017-11-17T03:59:24.044Z,21.29
2017-11-17T03:59:55.674Z,21.28
2017-11-17T04:00:27.304Z,21.27
2017-11-17T04:00:59.247Z,21.29
2017-11-17T04:01:30.888Z,21.29
2017-11-17T04:02:02.528Z,21.32
2017-11-17T04:02:34.168Z,21.32
2017-11-17T04:03:05.811Z,21.29
2017-11-17T04:03:37.456Z,21.29
2017-11-17T04:04:09.095Z,21.29
2017-11-17T04:04:40.767Z,21.29
2017-11-17T04:05:12.394Z,21.29
2017-11-17T04:05:44.261Z,21.27
2017-11-17T04:06:15.887Z,21.27
2017-11-17T04:06:47.516Z,21.27
2017-11-17T04:07:19.260Z,21.28
2017-11-17T04:07:51.206Z,21.30
2017-11-17T04:08:22.856Z,21.28
2017-11-17T04:08:54.494Z,21.27
2017-11-17T04:09:26.438Z,21.27
2017-11-17T04:09:58.078Z,21.25
2017-11-17T04:10:29.719Z,21.24
2017-11-17T04:11:01.364Z,21.25
2017-11-17T04:11:33.006Z,21.27
2017-11-17T04:12:04.655Z,21.26
2017-11-17T04:12:36.303Z,21.27
2017-11-17T04:13:08.239Z,21.27
2017-11-17T04:13:39.878Z,21.28
2017-11-17T04:14:11.523Z,21.25
2017-11-17T04:14:43.187Z,21.24
2017-11-17T04:15:14.811Z,21.21
2017-11-17T04:15:46.445Z,21.20
2017-11-17T04:16:18.087Z,21.21
2017-11-17T04:16:49.732Z,21.21
2017-11-17T04:17:21.373Z,21.20
2017-11-17T04:17:53.014Z,21.20
2017-11-17T04:18:24.662Z,21.18
2017-11-17T04:18:56.297Z,21.16
2017-11-17T04:19:27.942Z,21.15
2017-11-17T04:19:59.618Z,21.13
2017-11-17T04:20:31.248Z,21.16
2017-11-17T04:21:02.883Z,21.16
2017-11-17T04:21:34.531Z,21.14
2017-11-17T04:22:06.164Z,21.14
2017-11-17T04:22:37.798Z,21.13
2017-11-17T04:23:09.434Z,21.12
2017-11-17T04:23:41.074Z,21.12
2017-11-17T04:24:12.717Z,21.11
2017-11-17T04:24:44.360Z,21.12
2017-11-17T04:25:16.032Z,21.10
2017-11-17T04:25:47.662Z,21.14
2017-11-17T04:26:19.290Z,21.12
2017-11-17T04:26:50.925Z,21.12
2017-11-17T04:27:22.567Z,21.11
2017-11-17T04:27:54.211Z,21.11
2017-11-17T04:28:25.853Z,21.11
2017-11-17T04:28:57.493Z,21.13
2017-11-17T04:29:29.136Z,21.13
2017-11-17T04:30:00.781Z,21.14
2017-11-17T04:30:32.448Z,21.12
2017-11-17T04:31:04.071Z,21.08
2017-11-17T04:31:35.704Z,21.09
2017-11-17T04:32:07.347Z,21.10
2017-11-17T04:32:38.989Z,21.09
2017-11-17T04:33:10.628Z,21.10
2017-11-17T04:33:42.273Z,21.08
2017-11-17T04:34:13.914Z,21.07
2017-11-17T04:34:45.554Z,21.08
2017-11-17T04:35:17.184Z,21.07
2017-11-17T04:35:48.859Z,21.06
2017-11-17T04:36:20.720Z,21.06
2017-11-17T04:36:52.343Z,21.05
2017-11-17T04:37:24.073Z,21.04
2017-11-17T04:37:55.713Z,21.04
2017-11-17T04:38:27.354Z,21.04
2017-11-17T04:38:58.984Z,21.03
2017-11-17T04:39:30.642Z,21.03
2017-11-17T04:40:02.283Z,21.04
2017-11-17T04:40:33.919Z,21.04
2017-11-17T04:41:05.592Z,21.04
2017-11-17T04:41:37.216Z,21.06
2017-11-17T04:42:08.851Z,21.08
2017-11-17T04:42:40.496Z,21.08
2017-11-17T04:43:12.136Z,21.06
2017-11-17T04:43:43.777Z,21.06
2017-11-17T04:44:15.419Z,21.07
2017-11-17T04:44:47.060Z,21.10
2017-11-17T04:45:18.699Z,21.11
2017-11-17T04:45:50.344Z,21.14
2017-11-17T04:46:22.010Z,21.15
2017-11-17T04:46:53.635Z,21.14
2017-11-17T04:47:25.472Z,21.14
2017-11-17T04:47:57.219Z,21.12
2017-11-17T04:48:28.860Z,21.11
2017-11-17T04:49:00.502Z,21.13
2017-11-17T04:49:32.128Z,21.15
2017-11-17T04:50:03.784Z,21.16
2017-11-17T04:50:35.433Z,21.18
2017-11-17T04:51:07.066Z,21.17
2017-11-17T04:51:38.719Z,21.19
2017-11-17T04:52:10.624Z,21.17
2017-11-17T04:52:42.252Z,21.17
2017-11-17T04:53:13.894Z,21.18
2017-11-17T04:53:45.539Z,21.18
2017-11-17T04:54:17.171Z,21.17
2017-11-17T04:54:48.799Z,21.19
2017-11-17T04:55:20.427Z,21.19
2017-11-17T04:55:52.155Z,21.20
2017-11-17T04:56:23.794Z,21.20
2017-11-17T04:56:55.464Z,21.20
2017-11-17T04:57:27.088Z,21.21
2017-11-17T04:57:58.723Z,21.21
2017-11-17T04:58:30.355Z,21.19
2017-11-17T04:59:02.015Z,21.21
2017-11-17T04:59:33.647Z,21.21
2017-11-17T05:00:05.340Z,21.24
2017-11-17T05:00:36.983Z,21.25
2017-11-17T05:01:08.612Z,21.26
2017-11-17T05:01:40.234Z,21.29
2017-11-17T05:02:11.907Z,21.34
2017-11-17T05:02:43.540Z,21.43
2017-11-17T05:03:15.163Z,21.42
2017-11-17T05:03:46.792Z,21.37
2017-11-17T05:04:18.539Z,21.32
2017-11-17T05:04:50.374Z,21.27
2017-11-17T05:05:22.020Z,21.25
2017-11-17T05:05:53.668Z,21.23
2017-11-17T05:06:25.298Z,21.23
2017-11-17T05:06:56.949Z,21.23
2017-11-17T05:07:28.625Z,21.24
2017-11-17T05:08:00.256Z,21.23
2017-11-17T05:08:31.884Z,21.25
2017-11-17T05:09:03.511Z,21.24
2017-11-17T05:09:35.150Z,21.24
2017-11-17T05:10:06.793Z,21.25
2017-11-17T05:10:38.432Z,21.22
2017-11-17T05:11:10.064Z,21.25
2017-11-17T05:11:41.716Z,21.26
2017-11-17T05:12:13.360Z,21.27
2017-11-17T05:12:45.031Z,21.30
2017-11-17T05:13:16.656Z,21.31
2017-11-17T05:13:48.594Z,21.31
2017-11-17T05:14:20.231Z,21.28
2017-11-17T05:14:51.874Z,21.27
2017-11-17T05:15:23.514Z,21.27
2017-11-17T05:15:55.161Z,21.29
2017-11-17T05:16:26.803Z,21.27
2017-11-17T05:16:58.445Z,21.28
2017-11-17T05:17:30.086Z,21.27
2017-11-17T05:18:01.756Z,21.26
2017-11-17T05:18:33.384Z,21.28
2017-11-17T05:19:05.245Z,21.26
2017-11-17T05:19:36.871Z,21.28
2017-11-17T05:20:08.604Z,21.30
2017-11-17T05:20:40.490Z,21.34
2017-11-17T05:21:12.119Z,21.34
2017-11-17T05:21:43.744Z,21.35
2017-11-17T05:22:15.477Z,21.34
2017-11-17T05:22:47.147Z,21.34
2017-11-17T05:23:18.815Z,21.33
2017-11-17T05:23:50.441Z,21.34
2017-11-17T05:24:22.067Z,21.34
2017-11-17T05:24:53.691Z,21.34
2017-11-17T05:25:25.353Z,21.35
2017-11-17T05:25:56.971Z,21.36
2017-11-17T05:26:28.599Z,21.34
2017-11-17T05:27:00.253Z,21.33
2017-11-17T05:27:31.894Z,21.36
2017-11-17T05:28:03.537Z,21.34
2017-11-17T05:28:35.178Z,21.37
2017-11-17T05:29:06.820Z,21.35
2017-11-17T05:29:38.468Z,21.32
2017-11-17T05:30:10.107Z,21.30
2017-11-17T05:30:41.749Z,21.31
2017-11-17T05:31:13.388Z,21.32
2017-11-17T05:31:45.033Z,21.32
2017-11-17T05:32:16.673Z,21.36
2017-11-17T05:32:48.313Z,21.37
2017-11-17T05:33:19.956Z,21.38
2017-11-17T05:33:51.628Z,21.38
2017-11-17T05:34:23.255Z,21.37
2017-11-17T05:34:54.887Z,21.40
2017-11-17T05:35:26.522Z,21.37
2017-11-17T05:35:58.168Z,21.36
2017-11-17T05:36:29.807Z,21.35
2017-11-17T05:37:01.449Z,21.36
2017-11-17T05:37:33.092Z,21.35
2017-11-17T05:38:04.740Z,21.35
2017-11-17T05:38:36.377Z,21.35
2017-11-17T05:39:08.045Z,21.34
2017-11-17T05:39:39.679Z,21.33
2017-11-17T05:40:11.610Z,21.32
2017-11-17T05:40:43.248Z,21.31
2017-11-17T05:41:14.894Z,21.30
2017-11-17T05:41:46.538Z,21.29
2017-11-17T05:42:18.179Z,21.29
2017-11-17T05:42:49.809Z,21.25
2017-11-17T05:43:21.458Z,21.26
2017-11-17T05:43:53.100Z,21.25
2017-11-17T05:44:24.767Z,21.22
2017-11-17T05:44:56.392Z,21.25
2017-11-17T05:45:28.028Z,21.25
2017-11-17T05:45:59.671Z,21.22
2017-11-17T05:46:31.310Z,21.24
2017-11-17T05:47:02.940Z,21.20
2017-11-17T05:47:34.571Z,21.19
2017-11-17T05:48:06.241Z,21.20
2017-11-17T05:48:37.881Z,21.21
2017-11-17T05:49:09.519Z,21.21
2017-11-17T05:49:41.200Z,21.23
2017-11-17T05:50:12.824Z,21.20
2017-11-17T05:50:44.757Z,21.19
2017-11-17T05:51:16.394Z,21.21
2017-11-17T05:51:48.037Z,21.19
2017-11-17T05:52:19.678Z,21.17
2017-11-17T05:52:51.320Z,21.19
2017-11-17T05:53:22.969Z,21.18
2017-11-17T05:53:54.610Z,21.17
2017-11-17T05:54:26.555Z,21.17
2017-11-17T05:54:58.223Z,21.18
2017-11-17T05:55:29.848Z,21.15
2017-11-17T05:56:01.791Z,21.15
2017-11-17T05:56:33.440Z,21.16
2017-11-17T05:57:05.309Z,21.16
2017-11-17T05:57:36.939Z,21.16
2017-11-17T05:58:08.564Z,21.15
2017-11-17T05:58:40.305Z,21.16
2017-11-17T05:59:11.944Z,21.15
2017-11-17T05:59:43.587Z,21.14
2017-11-17T06:00:15.260Z,21.15
2017-11-17T06:00:46.883Z,21.14
2017-11-17T06:01:18.514Z,21.14
2017-11-17T06:01:50.156Z,21.16
2017-11-17T06:02:21.806Z,21.17
2017-11-17T06:02:53.440Z,21.16
2017-11-17T06:03:25.078Z,21.14
2017-11-17T06:03:56.721Z,21.16
2017-11-17T06:04:28.366Z,21.14
2017-11-17T06:05:00.006Z,21.15
2017-11-17T06:05:31.682Z,21.15
2017-11-17T06:06:03.303Z,21.16
2017-11-17T06:06:34.936Z,21.15
2017-11-17T06:07:06.572Z,21.14
2017-11-17T06:07:38.215Z,21.12
2017-11-17T06:08:09.861Z,21.15
2017-11-17T06:08:41.808Z,21.16
2017-11-17T06:09:13.449Z,21.15
2017-11-17T06:09:45.090Z,21.16
2017-11-17T06:10:16.734Z,21.14
2017-11-17T06:10:48.399Z,21.14
2017-11-17T06:11:20.023Z,21.13
2017-11-17T06:11:51.670Z,21.15
2017-11-17T06:12:23.307Z,21.12
2017-11-17T06:12:55.137Z,21.12
2017-11-17T06:13:27.460Z,21.14
2017-11-17T06:14:00.482Z,21.14
2017-11-17T06:14:32.182Z,21.15
2017-11-17T06:15:03.815Z,21.16
2017-11-17T06:15:35.451Z,21.15
2017-11-17T06:16:07.123Z,21.16
2017-11-17T06:16:38.758Z,21.16
2017-11-17T06:17:10.383Z,21.18
2017-11-17T06:17:42.011Z,21.18
2017-11-17T06:18:13.634Z,21.18
2017-11-17T06:18:45.263Z,21.19
2017-11-17T06:19:17.093Z,21.18
2017-11-17T06:19:48.743Z,21.18
2017-11-17T06:20:20.372Z,21.18
2017-11-17T06:20:52.027Z,21.17
2017-11-17T06:21:23.696Z,21.18
2017-11-17T06:21:55.319Z,21.18
2017-11-17T06:22:26.943Z,21.17
2017-11-17T06:22:58.598Z,21.18
2017-11-17T06:23:30.245Z,21.17
2017-11-17T06:24:01.890Z,21.17
2017-11-17T06:24:33.566Z,21.18
2017-11-17T06:25:05.195Z,21.19
2017-11-17T06:25:36.820Z,21.18
2017-11-17T06:26:08.766Z,21.17
2017-11-17T06:26:40.441Z,21.19
2017-11-17T06:27:12.071Z,21.21
2017-11-17T06:27:43.694Z,21.22
2017-11-17T06:28:15.631Z,21.23
2017-11-17T06:28:47.273Z,21.22
2017-11-17T06:29:18.899Z,21.20
2017-11-17T06:29:50.555Z,21.20
2017-11-17T06:30:22.197Z,21.19
2017-11-17T06:30:53.837Z,21.22
2017-11-17T06:31:25.482Z,21.22
2017-11-17T06:31:57.148Z,21.23
2017-11-17T06:32:28.775Z,21.22
2017-11-17T06:33:00.656Z,21.25
2017-11-17T06:33:32.281Z,21.23
2017-11-17T06:34:03.913Z,21.23
2017-11-17T06:34:35.543Z,21.25
2017-11-17T06:35:07.283Z,21.24
2017-11-17T06:35:38.924Z,21.26
2017-11-17T06:36:10.567Z,21.26
2017-11-17T06:36:42.237Z,21.23
2017-11-17T06:37:13.907Z,21.22
2017-11-17T06:37:45.545Z,21.22
2017-11-17T06:38:17.174Z,21.19
2017-11-17T06:38:48.802Z,21.20
2017-11-17T06:39:20.429Z,21.21
2017-11-17T06:39:52.259Z,21.22
2017-11-17T06:40:24.013Z,21.22
2017-11-17T06:40:55.656Z,21.21
2017-11-17T06:41:27.599Z,21.22
2017-11-17T06:41:59.240Z,21.22
2017-11-17T06:42:30.887Z,21.22
2017-11-17T06:43:02.525Z,21.24
2017-11-17T06:43:34.169Z,21.25
2017-11-17T06:44:05.809Z,21.22
2017-11-17T06:44:37.440Z,21.23
2017-11-17T06:45:09.093Z,21.23
2017-11-17T06:45:40.735Z,21.24
2017-11-17T06:46:12.376Z,21.21
2017-11-17T06:46:44.018Z,21.22
2017-11-17T06:47:15.662Z,21.23
2017-11-17T06:47:47.332Z,21.24